createdAt,value
2017-01-25T00:00:15.900Z,23.68
2017-01-25T00:00:56.481Z,23.61
2017-01-25T00:01:37.081Z,23.61
2017-01-25T00:02:17.654Z,23.65
2017-01-25T00:02:58.234Z,23.65
2017-01-25T00:03:38.817Z,23.61
2017-01-25T00:04:19.423Z,23.61
2017-01-25T00:05:00.018Z,23.65
2017-01-25T00:05:40.615Z,23.6
2017-01-25T00:06:21.198Z,23.63
2017-01-25T00:07:01.787Z,23.63
2017-01-25T00:07:42.368Z,23.51
2017-01-25T00:08:22.935Z,23.57
2017-01-25T00:09:03.528Z,23.68
2017-01-25T00:09:44.112Z,23.55
2017-01-25T00:10:24.697Z,23.57
2017-01-25T00:11:05.292Z,23.55
2017-01-25T00:11:45.885Z,23.57
2017-01-25T00:12:26.468Z,23.57
2017-01-25T00:13:07.054Z,23.57
2017-01-25T00:13:47.644Z,23.51
2017-01-25T00:14:28.233Z,23.55
2017-01-25T00:15:08.836Z,23.51
2017-01-25T00:15:49.403Z,23.55
2017-01-25T00:16:29.976Z,23.57
2017-01-25T00:17:10.552Z,23.51
2017-01-25T00:17:51.143Z,23.53
2017-01-25T00:18:31.725Z,23.57
2017-01-25T00:19:12.311Z,23.58
2017-01-25T00:19:52.904Z,23.53
2017-01-25T00:20:33.514Z,23.47
2017-01-25T00:21:14.102Z,23.48
2017-01-25T00:21:54.694Z,23.51
2017-01-25T00:22:35.283Z,23.51
2017-01-25T00:23:15.874Z,23.53
2017-01-25T00:23:56.460Z,23.5
2017-01-25T00:24:37.033Z,23.42
2017-01-25T00:25:17.618Z,23.53
2017-01-25T00:25:58.211Z,23.5
2017-01-25T00:26:38.785Z,23.53
2017-01-25T00:27:19.369Z,23.5
2017-01-25T00:27:59.966Z,23.47
2017-01-25T00:28:40.537Z,23.46
2017-01-25T00:29:21.120Z,23.55
2017-01-25T00:30:01.720Z,23.51
2017-01-25T00:30:42.299Z,23.46
2017-01-25T00:31:22.874Z,23.54
2017-01-25T00:32:03.468Z,23.48
2017-01-25T00:32:44.054Z,23.54
2017-01-25T00:33:24.632Z,23.51
2017-01-25T00:34:05.227Z,23.53
2017-01-25T00:34:45.825Z,23.5
2017-01-25T00:35:26.438Z,23.46
2017-01-25T00:36:07.022Z,23.51
2017-01-25T00:36:47.600Z,23.5
2017-01-25T00:37:28.193Z,23.43
2017-01-25T00:38:08.793Z,23.5
2017-01-25T00:38:49.405Z,23.48
2017-01-25T00:39:29.997Z,23.5
2017-01-25T00:40:10.627Z,23.47
2017-01-25T00:40:51.197Z,23.48
2017-01-25T00:41:31.797Z,23.47
2017-01-25T00:42:12.377Z,23.43
2017-01-25T00:42:52.962Z,23.46
2017-01-25T00:43:33.557Z,23.51
2017-01-25T00:44:14.153Z,23.43
2017-01-25T00:44:54.725Z,23.47
2017-01-25T00:45:35.308Z,23.5
2017-01-25T00:46:15.894Z,23.4
2017-01-25T00:46:56.472Z,23.42
2017-01-25T00:47:37.063Z,23.5
2017-01-25T00:48:17.640Z,23.48
2017-01-25T00:48:58.241Z,23.5
2017-01-25T00:49:38.815Z,23.4
2017-01-25T00:50:19.425Z,23.51
2017-01-25T00:51:00.012Z,23.42
2017-01-25T00:51:40.625Z,23.48
2017-01-25T00:52:21.225Z,23.4
2017-01-25T00:53:01.810Z,23.46
2017-01-25T00:53:42.395Z,23.47
2017-01-25T00:54:22.997Z,23.43
2017-01-25T00:55:03.594Z,23.42
2017-01-25T00:55:44.173Z,23.46
2017-01-25T00:56:24.759Z,23.38
2017-01-25T00:57:05.360Z,23.39
2017-01-25T00:57:45.936Z,23.46
2017-01-25T00:58:26.514Z,23.42
2017-01-25T00:59:07.097Z,23.4
2017-01-25T00:59:47.685Z,23.42
2017-01-25T01:00:28.267Z,23.4
2017-01-25T01:01:08.852Z,23.43
2017-01-25T01:01:49.451Z,23.36
2017-01-25T01:02:30.036Z,23.36
2017-01-25T01:03:10.621Z,23.36
2017-01-25T01:03:51.207Z,23.47
2017-01-25T01:04:31.810Z,23.4
2017-01-25T01:05:12.408Z,23.43
2017-01-25T01:05:52.988Z,23.36
2017-01-25T01:06:33.572Z,23.35
2017-01-25T01:07:14.175Z,23.5
2017-01-25T01:07:54.789Z,23.36
2017-01-25T01:08:35.385Z,23.36
2017-01-25T01:09:15.960Z,23.35
2017-01-25T01:09:56.538Z,23.36
2017-01-25T01:10:37.141Z,23.38
2017-01-25T01:11:17.723Z,23.36
2017-01-25T01:11:58.315Z,23.35
2017-01-25T01:12:38.898Z,23.43
2017-01-25T01:13:19.478Z,23.4
2017-01-25T01:14:00.907Z,23.38
2017-01-25T01:14:40.642Z,23.38
2017-01-25T01:15:21.242Z,23.38
2017-01-25T01:16:01.824Z,23.4
2017-01-25T01:16:42.405Z,23.38
2017-01-25T01:17:22.986Z,23.35
2017-01-25T01:18:03.569Z,23.38
2017-01-25T01:18:44.159Z,23.33
2017-01-25T01:19:24.739Z,23.4
2017-01-25T01:20:05.322Z,23.28
2017-01-25T01:20:45.901Z,23.4
2017-01-25T01:21:26.481Z,23.31
2017-01-25T01:22:07.073Z,23.32
2017-01-25T01:22:47.658Z,23.4
2017-01-25T01:23:28.255Z,23.31
2017-01-25T01:24:08.840Z,23.33
2017-01-25T01:24:49.420Z,23.36
2017-01-25T01:25:30.001Z,23.42
2017-01-25T01:26:10.586Z,23.32
2017-01-25T01:26:51.162Z,23.31
2017-01-25T01:27:31.746Z,23.4
2017-01-25T01:28:12.326Z,23.35
2017-01-25T01:28:52.915Z,23.36
2017-01-25T01:29:33.494Z,23.33
2017-01-25T01:30:14.089Z,23.25
2017-01-25T01:30:54.675Z,23.31
2017-01-25T01:31:35.278Z,23.27
2017-01-25T01:32:15.862Z,23.32
2017-01-25T01:32:56.453Z,23.35
2017-01-25T01:33:37.077Z,23.25
2017-01-25T01:34:17.685Z,23.42
2017-01-25T01:34:58.279Z,23.39
2017-01-25T01:35:38.860Z,23.28
2017-01-25T01:36:19.469Z,23.28
2017-01-25T01:37:00.057Z,23.28
2017-01-25T01:37:40.658Z,23.22
2017-01-25T01:38:21.248Z,23.23
2017-01-25T01:39:01.848Z,23.25
2017-01-25T01:39:42.438Z,23.25
2017-01-25T01:40:23.022Z,23.27
2017-01-25T01:41:03.609Z,23.35
2017-01-25T01:41:45.013Z,23.25
2017-01-25T01:42:25.599Z,23.25
2017-01-25T01:43:06.215Z,23.28
2017-01-25T01:43:46.799Z,23.22
2017-01-25T01:44:27.391Z,23.25
2017-01-25T01:45:07.970Z,23.28
2017-01-25T01:45:48.560Z,23.23
2017-01-25T01:46:29.152Z,23.27
2017-01-25T01:47:09.744Z,23.25
2017-01-25T01:47:50.332Z,23.23
2017-01-25T01:48:30.925Z,23.33
2017-01-25T01:49:11.512Z,23.25
2017-01-25T01:49:52.093Z,23.23
2017-01-25T01:50:32.694Z,23.27
2017-01-25T01:51:13.285Z,23.23
2017-01-25T01:51:53.885Z,23.22
2017-01-25T01:52:34.468Z,23.19
2017-01-25T01:53:15.066Z,23.23
2017-01-25T01:53:55.657Z,23.2
2017-01-25T01:54:36.251Z,23.22
2017-01-25T01:55:16.856Z,23.31
2017-01-25T01:55:57.437Z,23.23
2017-01-25T01:56:38.038Z,23.23
2017-01-25T01:57:18.622Z,23.28
2017-01-25T01:57:59.194Z,23.31
2017-01-25T01:58:39.785Z,23.28
2017-01-25T01:59:20.374Z,23.19
2017-01-25T02:00:00.959Z,23.23
2017-01-25T02:00:41.541Z,23.23
2017-01-25T02:01:22.158Z,23.19
2017-01-25T02:02:02.732Z,23.31
2017-01-25T02:02:43.306Z,23.31
2017-01-25T02:03:23.908Z,23.22
2017-01-25T02:04:04.498Z,23.23
2017-01-25T02:04:45.092Z,23.19
2017-01-25T02:05:25.696Z,23.19
2017-01-25T02:06:06.289Z,23.27
2017-01-25T02:06:46.873Z,23.2
2017-01-25T02:07:27.454Z,23.22
2017-01-25T02:08:08.033Z,23.31
2017-01-25T02:08:48.628Z,23.2
2017-01-25T02:09:29.209Z,23.23
2017-01-25T02:10:09.810Z,23.33
2017-01-25T02:10:50.387Z,23.27
2017-01-25T02:11:30.965Z,23.23
2017-01-25T02:12:11.586Z,23.2
2017-01-25T02:12:52.178Z,23.23
2017-01-25T02:13:32.786Z,23.25
2017-01-25T02:14:13.378Z,23.23
2017-01-25T02:14:53.968Z,23.27
2017-01-25T02:15:34.558Z,23.23
2017-01-25T02:16:15.153Z,23.23
2017-01-25T02:16:55.735Z,23.16
2017-01-25T02:17:36.325Z,23.23
2017-01-25T02:18:16.927Z,23.25
2017-01-25T02:18:57.508Z,23.2
2017-01-25T02:19:38.109Z,23.25
2017-01-25T02:20:18.711Z,23.22
2017-01-25T02:20:59.306Z,23.22
2017-01-25T02:21:39.900Z,23.25
2017-01-25T02:22:20.482Z,23.2
2017-01-25T02:23:01.068Z,23.23
2017-01-25T02:23:41.642Z,23.23
2017-01-25T02:24:22.227Z,23.23
2017-01-25T02:25:02.831Z,23.23
2017-01-25T02:25:43.419Z,23.2
2017-01-25T02:26:24.016Z,23.19
2017-01-25T02:27:04.625Z,23.25
2017-01-25T02:27:45.221Z,23.16
2017-01-25T02:28:25.796Z,23.22
2017-01-25T02:29:06.378Z,23.27
2017-01-25T02:29:46.963Z,23.16
2017-01-25T02:30:27.551Z,23.22
2017-01-25T02:31:08.150Z,23.16
2017-01-25T02:31:48.747Z,23.27
2017-01-25T02:32:29.331Z,23.16
2017-01-25T02:33:09.912Z,23.13
2017-01-25T02:33:50.506Z,23.17
2017-01-25T02:34:31.082Z,23.13
2017-01-25T02:35:11.661Z,23.22
2017-01-25T02:35:52.243Z,23.13
2017-01-25T02:36:32.845Z,23.13
2017-01-25T02:37:13.444Z,23.17
2017-01-25T02:37:54.043Z,23.15
2017-01-25T02:38:34.642Z,23.13
2017-01-25T02:39:15.212Z,23.15
2017-01-25T02:39:55.804Z,23.17
2017-01-25T02:40:36.385Z,23.2
2017-01-25T02:41:16.961Z,23.13
2017-01-25T02:41:57.547Z,23.15
2017-01-25T02:42:38.122Z,23.09
2017-01-25T02:43:18.718Z,23.15
2017-01-25T02:43:59.301Z,23.09
2017-01-25T02:44:39.887Z,23.12
2017-01-25T02:45:20.468Z,23.15
2017-01-25T02:46:01.061Z,23.12
2017-01-25T02:46:41.648Z,23.17
2017-01-25T02:47:22.240Z,23.2
2017-01-25T02:48:02.876Z,23.17
2017-01-25T02:48:43.464Z,23.13
2017-01-25T02:49:24.071Z,23.13
2017-01-25T02:50:04.682Z,23.15
2017-01-25T02:50:45.264Z,23.16
2017-01-25T02:51:25.840Z,23.15
2017-01-25T02:52:06.424Z,23.13
2017-01-25T02:52:47.005Z,23.22
2017-01-25T02:53:27.596Z,23.15
2017-01-25T02:54:08.208Z,23.19
2017-01-25T02:54:48.797Z,23.15
2017-01-25T02:55:29.375Z,23.22
2017-01-25T02:56:09.952Z,23.19
2017-01-25T02:56:50.542Z,23.16
2017-01-25T02:57:31.139Z,23.17
2017-01-25T02:58:11.724Z,23.1
2017-01-25T02:58:52.332Z,23.19
2017-01-25T02:59:32.934Z,23.13
2017-01-25T03:00:13.535Z,23.17
2017-01-25T03:00:55.021Z,23.17
2017-01-25T03:01:35.607Z,23.19
2017-01-25T03:02:16.222Z,23.15
2017-01-25T03:02:56.812Z,23.13
2017-01-25T03:03:37.408Z,23.09
2017-01-25T03:04:18.000Z,23.13
2017-01-25T03:04:58.588Z,23.13
2017-01-25T03:05:39.211Z,23.17
2017-01-25T03:06:19.809Z,23.16
2017-01-25T03:07:00.401Z,23.12
2017-01-25T03:07:40.984Z,23.16
2017-01-25T03:08:21.585Z,23.16
2017-01-25T03:09:02.180Z,23.16
2017-01-25T03:09:42.765Z,23.12
2017-01-25T03:10:23.357Z,23.15
2017-01-25T03:11:03.932Z,23.15
2017-01-25T03:11:44.514Z,23.07
2017-01-25T03:12:25.129Z,23.09
2017-01-25T03:13:05.713Z,23.13
2017-01-25T03:13:46.295Z,23.17
2017-01-25T03:14:26.873Z,23.13
2017-01-25T03:15:07.444Z,23.04
2017-01-25T03:15:48.024Z,23.15
2017-01-25T03:16:28.613Z,23.1
2017-01-25T03:17:09.218Z,23.13
2017-01-25T03:17:49.820Z,23.15
2017-01-25T03:18:30.418Z,23.1
2017-01-25T03:19:10.987Z,23.1
2017-01-25T03:19:51.598Z,23.1
2017-01-25T03:20:32.184Z,23.13
2017-01-25T03:21:12.779Z,23.1
2017-01-25T03:21:53.359Z,23.13
2017-01-25T03:22:33.938Z,23.13
2017-01-25T03:23:14.530Z,23.13
2017-01-25T03:23:55.149Z,23.15
2017-01-25T03:24:35.739Z,23.09
2017-01-25T03:25:16.349Z,23.15
2017-01-25T03:25:56.946Z,23.13
2017-01-25T03:26:37.527Z,23.15
2017-01-25T03:27:18.106Z,23.15
2017-01-25T03:27:58.695Z,23.13
2017-01-25T03:28:39.272Z,23.13
2017-01-25T03:29:19.883Z,23.13
2017-01-25T03:30:00.454Z,23.16
2017-01-25T03:30:41.035Z,23.07
2017-01-25T03:31:21.627Z,23.07
2017-01-25T03:32:02.210Z,23.07
2017-01-25T03:32:42.814Z,23.04
2017-01-25T03:33:23.426Z,23.04
2017-01-25T03:34:04.017Z,23.13
2017-01-25T03:34:44.598Z,23.01
2017-01-25T03:35:25.178Z,23.09
2017-01-25T03:36:05.773Z,23.04
2017-01-25T03:36:46.352Z,23.04
2017-01-25T03:37:26.938Z,23.09
2017-01-25T03:38:07.539Z,23.07
2017-01-25T03:38:48.135Z,23.12
2017-01-25T03:39:28.717Z,23.1
2017-01-25T03:40:09.334Z,23.07
2017-01-25T03:40:49.955Z,22.97
2017-01-25T03:41:30.547Z,22.94
2017-01-25T03:42:11.131Z,23.02
2017-01-25T03:42:51.718Z,23.04
2017-01-25T03:43:32.311Z,23.04
2017-01-25T03:44:12.887Z,23.05
2017-01-25T03:44:53.499Z,23.04
2017-01-25T03:45:34.084Z,23.07
2017-01-25T03:46:14.663Z,23.02
2017-01-25T03:46:55.254Z,23.01
2017-01-25T03:47:35.853Z,23
2017-01-25T03:48:16.456Z,23
2017-01-25T03:48:57.062Z,22.98
2017-01-25T03:49:37.639Z,22.98
2017-01-25T03:50:18.273Z,22.98
2017-01-25T03:50:58.864Z,23
2017-01-25T03:51:39.455Z,22.92
2017-01-25T03:52:20.046Z,23
2017-01-25T03:53:00.623Z,22.98
2017-01-25T03:53:41.222Z,23.02
2017-01-25T03:54:21.798Z,22.98
2017-01-25T03:55:02.405Z,22.97
2017-01-25T03:55:42.978Z,23.01
2017-01-25T03:56:23.572Z,22.98
2017-01-25T03:57:04.179Z,22.98
2017-01-25T03:57:44.787Z,23.02
2017-01-25T03:58:25.395Z,23.04
2017-01-25T03:59:05.989Z,23.02
2017-01-25T03:59:46.599Z,23.09
2017-01-25T04:00:27.196Z,22.97
2017-01-25T04:01:07.790Z,23
2017-01-25T04:01:48.371Z,22.97
2017-01-25T04:02:28.949Z,23.04
2017-01-25T04:03:09.538Z,23
2017-01-25T04:03:50.133Z,22.95
2017-01-25T04:04:30.712Z,22.98
2017-01-25T04:05:11.305Z,22.95
2017-01-25T04:05:51.912Z,22.98
2017-01-25T04:06:32.515Z,22.97
2017-01-25T04:07:13.117Z,23
2017-01-25T04:07:53.712Z,22.98
2017-01-25T04:08:34.284Z,22.98
2017-01-25T04:09:14.919Z,22.94
2017-01-25T04:09:55.509Z,22.92
2017-01-25T04:10:36.113Z,22.94
2017-01-25T04:11:16.704Z,22.94
2017-01-25T04:11:57.299Z,22.92
2017-01-25T04:12:37.871Z,22.97
2017-01-25T04:13:18.463Z,22.91
2017-01-25T04:13:59.058Z,22.88
2017-01-25T04:14:39.649Z,22.88
2017-01-25T04:15:20.229Z,22.94
2017-01-25T04:16:00.833Z,23.01
2017-01-25T04:16:41.406Z,22.98
2017-01-25T04:17:21.987Z,22.94
2017-01-25T04:18:02.575Z,22.98
2017-01-25T04:18:43.160Z,22.94
2017-01-25T04:19:23.744Z,22.94
2017-01-25T04:20:04.329Z,23.02
2017-01-25T04:20:44.911Z,22.91
2017-01-25T04:21:25.489Z,22.95
2017-01-25T04:22:06.084Z,22.92
2017-01-25T04:22:46.670Z,22.88
2017-01-25T04:23:27.276Z,22.95
2017-01-25T04:24:07.861Z,22.88
2017-01-25T04:24:48.431Z,22.91
2017-01-25T04:25:29.025Z,22.92
2017-01-25T04:26:09.619Z,22.88
2017-01-25T04:26:50.210Z,22.98
2017-01-25T04:27:30.821Z,22.95
2017-01-25T04:28:11.404Z,22.91
2017-01-25T04:28:51.997Z,22.86
2017-01-25T04:29:32.579Z,22.88
2017-01-25T04:30:13.151Z,22.88
2017-01-25T04:30:53.740Z,22.88
2017-01-25T04:31:34.327Z,22.86
2017-01-25T04:32:14.908Z,22.88
2017-01-25T04:32:55.484Z,22.94
2017-01-25T04:33:36.069Z,22.92
2017-01-25T04:34:16.649Z,22.85
2017-01-25T04:34:57.235Z,22.86
2017-01-25T04:35:37.827Z,22.88
2017-01-25T04:36:18.399Z,22.92
2017-01-25T04:36:58.989Z,22.86
2017-01-25T04:37:39.586Z,22.85
2017-01-25T04:38:20.175Z,22.88
2017-01-25T04:39:00.750Z,22.85
2017-01-25T04:39:41.330Z,22.88
2017-01-25T04:40:21.909Z,22.86
2017-01-25T04:41:02.522Z,22.83
2017-01-25T04:41:43.087Z,22.88
2017-01-25T04:42:23.663Z,22.83
2017-01-25T04:43:04.262Z,22.88
2017-01-25T04:43:44.858Z,22.94
2017-01-25T04:44:25.433Z,22.83
2017-01-25T04:45:06.030Z,22.85
2017-01-25T04:45:46.626Z,22.91
2017-01-25T04:46:27.216Z,22.8
2017-01-25T04:47:07.813Z,22.92
2017-01-25T04:47:48.396Z,22.85
2017-01-25T04:48:28.985Z,22.85
2017-01-25T04:49:09.577Z,22.83
2017-01-25T04:49:50.177Z,22.85
2017-01-25T04:50:30.759Z,22.95
2017-01-25T04:51:11.335Z,22.91
2017-01-25T04:51:51.924Z,22.86
2017-01-25T04:52:32.506Z,22.82
2017-01-25T04:53:13.128Z,22.9
2017-01-25T04:53:53.710Z,22.88
2017-01-25T04:54:34.291Z,22.9
2017-01-25T04:55:14.893Z,22.83
2017-01-25T04:55:55.470Z,22.85
2017-01-25T04:56:36.051Z,22.92
2017-01-25T04:57:16.638Z,22.88
2017-01-25T04:57:57.231Z,22.9
2017-01-25T04:58:37.812Z,22.88
2017-01-25T04:59:18.402Z,22.86
2017-01-25T04:59:59.003Z,22.86
2017-01-25T05:00:39.594Z,22.86
2017-01-25T05:01:20.174Z,22.8
2017-01-25T05:02:00.782Z,22.88
2017-01-25T05:02:41.353Z,22.95
2017-01-25T05:03:21.949Z,22.86
2017-01-25T05:04:02.557Z,22.86
2017-01-25T05:04:43.164Z,22.92
2017-01-25T05:05:23.752Z,22.83
2017-01-25T05:06:04.337Z,22.83
2017-01-25T05:06:44.919Z,22.86
2017-01-25T05:07:25.500Z,22.83
2017-01-25T05:08:06.088Z,22.91
2017-01-25T05:08:46.680Z,22.83
2017-01-25T05:09:27.267Z,22.85
2017-01-25T05:10:07.852Z,22.8
2017-01-25T05:10:48.428Z,22.86
2017-01-25T05:11:29.011Z,22.83
2017-01-25T05:12:09.611Z,22.83
2017-01-25T05:12:50.183Z,22.82
2017-01-25T05:13:30.763Z,22.86
2017-01-25T05:14:11.354Z,22.88
2017-01-25T05:14:51.951Z,22.83
2017-01-25T05:15:32.542Z,22.85
2017-01-25T05:16:13.120Z,22.86
2017-01-25T05:16:53.729Z,22.82
2017-01-25T05:17:34.329Z,22.9
2017-01-25T05:18:14.918Z,22.85
2017-01-25T05:18:55.517Z,22.82
2017-01-25T05:19:36.124Z,22.8
2017-01-25T05:20:16.707Z,22.88
2017-01-25T05:20:57.296Z,22.79
2017-01-25T05:21:37.889Z,22.8
2017-01-25T05:22:18.488Z,22.83
2017-01-25T05:22:59.081Z,22.82
2017-01-25T05:23:39.672Z,22.79
2017-01-25T05:24:20.257Z,22.86
2017-01-25T05:25:00.848Z,22.85
2017-01-25T05:25:41.461Z,22.8
2017-01-25T05:26:22.050Z,22.77
2017-01-25T05:27:02.628Z,22.82
2017-01-25T05:27:43.211Z,22.82
2017-01-25T05:28:23.802Z,22.77
2017-01-25T05:29:04.384Z,22.79
2017-01-25T05:29:44.961Z,22.79
2017-01-25T05:30:25.542Z,22.79
2017-01-25T05:31:06.140Z,22.86
2017-01-25T05:31:46.720Z,22.73
2017-01-25T05:32:27.302Z,22.73
2017-01-25T05:33:07.905Z,22.75
2017-01-25T05:33:48.481Z,22.77
2017-01-25T05:34:29.072Z,22.73
2017-01-25T05:35:09.667Z,22.82
2017-01-25T05:35:50.266Z,22.8
2017-01-25T05:36:30.860Z,22.77
2017-01-25T05:37:11.445Z,22.86
2017-01-25T05:37:52.035Z,22.77
2017-01-25T05:38:32.620Z,22.72
2017-01-25T05:39:13.216Z,22.77
2017-01-25T05:39:53.797Z,22.77
2017-01-25T05:40:34.388Z,22.75
2017-01-25T05:41:14.973Z,22.76
2017-01-25T05:41:55.558Z,22.8
2017-01-25T05:42:36.133Z,22.79
2017-01-25T05:43:16.725Z,22.73
2017-01-25T05:43:57.345Z,22.79
2017-01-25T05:44:37.929Z,22.83
2017-01-25T05:45:18.514Z,22.76
2017-01-25T05:45:59.099Z,22.77
2017-01-25T05:46:39.678Z,22.75
2017-01-25T05:47:20.270Z,22.77
2017-01-25T05:48:00.856Z,22.68
2017-01-25T05:48:41.447Z,22.79
2017-01-25T05:49:22.044Z,22.8
2017-01-25T05:50:02.644Z,22.82
2017-01-25T05:50:43.229Z,22.77
2017-01-25T05:51:23.807Z,22.76
2017-01-25T05:52:04.400Z,22.8
2017-01-25T05:52:45.015Z,22.83
2017-01-25T05:53:25.560Z,22.76
2017-01-25T05:54:06.182Z,22.82
2017-01-25T05:54:46.763Z,22.73
2017-01-25T05:55:27.345Z,22.76
2017-01-25T05:56:07.922Z,22.75
2017-01-25T05:56:48.506Z,22.8
2017-01-25T05:57:29.094Z,22.77
2017-01-25T05:58:09.681Z,22.76
2017-01-25T05:58:50.264Z,22.77
2017-01-25T05:59:30.867Z,22.75
2017-01-25T06:00:11.466Z,22.82
2017-01-25T06:00:52.058Z,22.76
2017-01-25T06:01:32.638Z,22.76
2017-01-25T06:02:13.223Z,22.79
2017-01-25T06:02:53.807Z,22.77
2017-01-25T06:03:34.397Z,22.79
2017-01-25T06:04:14.975Z,22.85
2017-01-25T06:04:55.562Z,22.79
2017-01-25T06:05:36.159Z,22.82
2017-01-25T06:06:16.734Z,22.86
2017-01-25T06:06:57.314Z,22.88
2017-01-25T06:07:37.906Z,22.91
2017-01-25T06:08:18.499Z,22.82
2017-01-25T06:08:59.080Z,22.85
2017-01-25T06:09:39.670Z,22.91
2017-01-25T06:10:20.245Z,22.85
2017-01-25T06:11:00.823Z,22.83
2017-01-25T06:11:41.402Z,22.86
2017-01-25T06:12:21.994Z,22.86
2017-01-25T06:13:02.602Z,22.86
2017-01-25T06:13:43.182Z,22.92
2017-01-25T06:14:23.755Z,22.85
2017-01-25T06:15:04.342Z,22.88
2017-01-25T06:15:44.928Z,22.88
2017-01-25T06:16:25.506Z,22.82
2017-01-25T06:17:06.109Z,22.85
2017-01-25T06:17:46.677Z,22.9
2017-01-25T06:18:27.258Z,22.83
2017-01-25T06:19:07.850Z,22.9
2017-01-25T06:19:48.438Z,22.86
2017-01-25T06:20:29.026Z,22.88
2017-01-25T06:21:09.624Z,22.85
2017-01-25T06:21:50.216Z,22.85
2017-01-25T06:22:30.796Z,22.92
2017-01-25T06:23:11.375Z,22.92
2017-01-25T06:23:51.979Z,22.95
2017-01-25T06:24:32.555Z,22.95
2017-01-25T06:25:13.153Z,22.9
2017-01-25T06:25:53.748Z,22.86
2017-01-25T06:26:34.334Z,22.86
2017-01-25T06:27:14.915Z,22.98
2017-01-25T06:27:55.509Z,22.88
2017-01-25T06:28:36.088Z,22.91
2017-01-25T06:29:16.662Z,22.94
2017-01-25T06:29:57.257Z,22.97
2017-01-25T06:30:37.874Z,22.83
2017-01-25T06:31:18.476Z,22.92
2017-01-25T06:31:59.050Z,22.91
2017-01-25T06:32:39.641Z,22.97
2017-01-25T06:33:20.252Z,23
2017-01-25T06:34:00.845Z,22.94
2017-01-25T06:34:41.443Z,22.91
2017-01-25T06:35:22.038Z,23.04
2017-01-25T06:36:02.622Z,23.01
2017-01-25T06:36:43.214Z,22.98
2017-01-25T06:37:23.804Z,22.98
2017-01-25T06:38:04.387Z,23.04
2017-01-25T06:38:44.974Z,22.98
2017-01-25T06:39:25.558Z,22.97
2017-01-25T06:40:06.144Z,23.01
2017-01-25T06:40:46.727Z,22.97
2017-01-25T06:41:27.333Z,22.97
2017-01-25T06:42:07.921Z,23
2017-01-25T06:42:48.497Z,23.01
2017-01-25T06:43:29.095Z,23.02
2017-01-25T06:44:09.677Z,23.01
2017-01-25T06:44:50.271Z,23
2017-01-25T06:45:30.876Z,23.01
2017-01-25T06:46:11.458Z,23.01
2017-01-25T06:46:52.040Z,23.01
2017-01-25T06:47:32.635Z,23.01
2017-01-25T06:48:13.240Z,22.94
2017-01-25T06:48:53.818Z,22.95
2017-01-25T06:49:34.405Z,22.94
2017-01-25T06:50:14.985Z,23.05
2017-01-25T06:50:55.571Z,22.95
2017-01-25T06:51:36.158Z,22.97
2017-01-25T06:52:16.747Z,22.98
2017-01-25T06:52:57.337Z,22.94
2017-01-25T06:53:37.913Z,22.92
2017-01-25T06:54:18.514Z,22.98
2017-01-25T06:54:59.103Z,22.94
2017-01-25T06:55:39.699Z,23.1
2017-01-25T06:56:20.284Z,23.09
2017-01-25T06:57:00.867Z,22.94
2017-01-25T06:57:41.449Z,23.02
2017-01-25T06:58:22.027Z,22.98
2017-01-25T06:59:02.615Z,23.02
2017-01-25T06:59:43.209Z,23
2017-01-25T07:00:23.795Z,22.98
2017-01-25T07:01:04.420Z,23
2017-01-25T07:01:44.988Z,23
2017-01-25T07:02:25.571Z,23.02
2017-01-25T07:03:06.145Z,23.02
2017-01-25T07:03:46.735Z,23.04
2017-01-25T07:04:27.314Z,23.05
2017-01-25T07:05:07.942Z,22.95
2017-01-25T07:05:48.527Z,22.98
2017-01-25T07:06:29.120Z,23
2017-01-25T07:07:09.717Z,22.98
2017-01-25T07:07:50.305Z,22.95
2017-01-25T07:08:30.887Z,23
2017-01-25T07:09:11.467Z,22.98
2017-01-25T07:09:52.083Z,23.01
2017-01-25T07:10:32.669Z,23.02
2017-01-25T07:11:13.274Z,22.97
2017-01-25T07:11:53.879Z,23.01
2017-01-25T07:12:34.465Z,23.01
2017-01-25T07:13:15.060Z,23
2017-01-25T07:13:55.649Z,23.01
2017-01-25T07:14:36.227Z,23
2017-01-25T07:15:16.820Z,22.91
2017-01-25T07:15:57.408Z,22.98
2017-01-25T07:16:37.986Z,23
2017-01-25T07:17:18.589Z,22.98
2017-01-25T07:17:59.213Z,22.98
2017-01-25T07:18:39.778Z,23.01
2017-01-25T07:19:20.370Z,22.97
2017-01-25T07:20:00.964Z,22.92
2017-01-25T07:20:41.571Z,22.98
2017-01-25T07:21:22.168Z,22.97
2017-01-25T07:22:02.785Z,22.97
2017-01-25T07:22:43.373Z,22.98
2017-01-25T07:23:23.956Z,22.94
2017-01-25T07:24:04.571Z,23.04
2017-01-25T07:24:45.185Z,22.98
2017-01-25T07:25:25.794Z,23.02
2017-01-25T07:26:06.386Z,23.13
2017-01-25T07:26:46.992Z,23.19
2017-01-25T07:27:27.596Z,23.12
2017-01-25T07:28:08.197Z,23.22
2017-01-25T07:28:48.788Z,23.2
2017-01-25T07:29:29.363Z,23.28
2017-01-25T07:30:09.944Z,23.35
2017-01-25T07:30:50.541Z,23.36
2017-01-25T07:31:31.133Z,23.43
2017-01-25T07:32:11.737Z,23.47
2017-01-25T07:32:52.325Z,23.46
2017-01-25T07:33:32.947Z,23.54
2017-01-25T07:34:13.530Z,23.58
2017-01-25T07:34:54.115Z,23.6
2017-01-25T07:35:34.739Z,23.65
2017-01-25T07:36:15.343Z,23.73
2017-01-25T07:36:55.925Z,23.69
2017-01-25T07:37:36.541Z,23.65
2017-01-25T07:38:17.124Z,23.78
2017-01-25T07:38:57.713Z,23.76
2017-01-25T07:39:38.319Z,23.79
2017-01-25T07:40:18.934Z,23.8
2017-01-25T07:40:59.526Z,23.79
2017-01-25T07:41:40.124Z,23.94
2017-01-25T07:42:20.725Z,23.85
2017-01-25T07:43:01.355Z,23.91
2017-01-25T07:43:41.933Z,23.93
2017-01-25T07:44:22.522Z,24.05
2017-01-25T07:45:03.110Z,24.08
2017-01-25T07:45:43.710Z,24.09
2017-01-25T07:46:24.294Z,24.18
2017-01-25T07:47:04.891Z,24.08
2017-01-25T07:47:45.485Z,24.2
2017-01-25T07:48:26.103Z,24.18
2017-01-25T07:49:06.724Z,24.13
2017-01-25T07:49:47.315Z,24.13
2017-01-25T07:50:27.949Z,24.24
2017-01-25T07:51:08.528Z,24.21
2017-01-25T07:51:49.155Z,24.21
2017-01-25T07:52:29.742Z,24.2
2017-01-25T07:53:10.340Z,24.2
2017-01-25T07:53:50.922Z,24.27
2017-01-25T07:54:31.518Z,24.18
2017-01-25T07:55:12.098Z,24.3
2017-01-25T07:55:52.701Z,24.28
2017-01-25T07:56:33.293Z,24.24
2017-01-25T07:57:13.875Z,24.27
2017-01-25T07:57:54.477Z,24.16
2017-01-25T07:58:35.066Z,24.2
2017-01-25T07:59:15.667Z,24.15
2017-01-25T07:59:56.252Z,24.22
2017-01-25T08:00:36.889Z,24.24
2017-01-25T08:01:17.475Z,24.18
2017-01-25T08:01:58.091Z,24.15
2017-01-25T08:02:38.692Z,24.2
2017-01-25T08:03:19.324Z,24.22
2017-01-25T08:03:59.961Z,24.21
2017-01-25T08:04:40.835Z,24.2
2017-01-25T08:05:22.023Z,24.24
2017-01-25T08:06:02.631Z,24.21
2017-01-25T08:06:43.219Z,24.27
2017-01-25T08:07:23.840Z,24.22
2017-01-25T08:08:04.431Z,24.34
2017-01-25T08:08:45.019Z,24.31
2017-01-25T08:09:25.630Z,24.4
2017-01-25T08:10:06.225Z,24.4
2017-01-25T08:10:46.815Z,24.31
2017-01-25T08:11:27.416Z,24.37
2017-01-25T08:12:08.030Z,24.31
2017-01-25T08:12:48.642Z,24.34
2017-01-25T08:13:29.231Z,24.39
2017-01-25T08:14:09.826Z,24.4
2017-01-25T08:14:50.414Z,24.43
2017-01-25T08:15:31.007Z,24.37
2017-01-25T08:16:12.578Z,24.49
2017-01-25T08:16:53.167Z,24.43
2017-01-25T08:17:33.801Z,24.46
2017-01-25T08:18:14.393Z,24.49
2017-01-25T08:18:54.987Z,24.53
2017-01-25T08:19:35.592Z,24.47
2017-01-25T08:20:16.176Z,24.53
2017-01-25T08:20:56.776Z,24.58
2017-01-25T08:21:37.961Z,24.61
2017-01-25T08:22:18.547Z,24.62
2017-01-25T08:22:59.170Z,24.6
2017-01-25T08:23:39.772Z,24.69
2017-01-25T08:24:20.356Z,24.65
2017-01-25T08:25:00.948Z,24.76
2017-01-25T08:25:41.554Z,24.77
2017-01-25T08:26:22.139Z,24.95
2017-01-25T08:27:02.725Z,24.93
2017-01-25T08:27:43.319Z,24.93
2017-01-25T08:28:23.937Z,24.98
2017-01-25T08:29:04.528Z,24.96
2017-01-25T08:29:45.120Z,24.93
2017-01-25T08:30:25.706Z,24.98
2017-01-25T08:31:06.324Z,25.06
2017-01-25T08:31:46.925Z,25.06
2017-01-25T08:32:27.499Z,25.09
2017-01-25T08:33:08.082Z,25.08
2017-01-25T08:33:48.669Z,25.06
2017-01-25T08:34:29.289Z,25.1
2017-01-25T08:35:09.882Z,25.08
2017-01-25T08:35:50.500Z,25.1
2017-01-25T08:36:31.108Z,25.08
2017-01-25T08:37:12.656Z,25.06
2017-01-25T08:37:52.316Z,25.21
2017-01-25T08:38:32.910Z,25.13
2017-01-25T08:39:13.509Z,25.14
2017-01-25T08:39:54.114Z,25.1
2017-01-25T08:40:34.713Z,25.17
2017-01-25T08:41:15.310Z,25.17
2017-01-25T08:41:55.935Z,25.1
2017-01-25T08:42:36.518Z,25.18
2017-01-25T08:43:17.104Z,25.08
2017-01-25T08:43:57.685Z,25.17
2017-01-25T08:44:38.268Z,25.17
2017-01-25T08:45:18.878Z,25.09